»·PEaware :: N618BD KBOI-KSUN

N618BD :: KBOI-KSUN

FLIGHT INFORMATION

Flight Status: Arrived
Operator: Privately registered:
United States
More flights under this callsign
Pilot: Anonymous 27579 (27579)
Aircraft: CESSNA 172 SKYHAWK
(C172)
More flights by this aircraft type
Origin: KBOI Boise Air Terminal/Gowen
United States
Destination: KSUN Friedman Meml
United States
More flights between these airports :: More routes between these airports
Route: +BOI3 BOI AROWS SOLDE
File this flight plan on PilotEdge
Remarks:
Altitude:
(Current/Filed)
15,000ft
Speed:
(Current/Filed)
110kts
Departed: 16-May-20 08:35 AM
Arrived: 16-May-20 09:40 AM
Distance/Time
Traveled:
84nm/1:05
Distance/Time
To Go:
Arrived

Flight Plot

Page will automatically refresh every two minutes.


Map Options




Map Legend


Flown Route
Filed Route
Departure Airport
Arrival Airport
Navaid (VOR, NDB)
Fix

Horizontal Profiles

Position Reports

Time Latitude Longitude Heading Altitude Ground
Speed
16-May-20 08:11 43.562236 -116.206308 270 2865ft 0kts
16-May-20 08:12 43.562236 -116.206308 270 2865ft 0kts
16-May-20 08:13 43.562236 -116.206308 270 2865ft 0kts
16-May-20 08:14 43.562236 -116.206308 270 2865ft 0kts
16-May-20 08:15 43.562236 -116.206308 270 2865ft 0kts
16-May-20 08:16 43.562236 -116.206308 270 2865ft 0kts
16-May-20 08:17 43.562229 -116.206490 265 2865ft 0kts
16-May-20 08:18 43.562229 -116.206490 265 2865ft 0kts
16-May-20 08:19 43.562229 -116.206490 265 2865ft 0kts
16-May-20 08:20 43.562229 -116.206490 265 2865ft 0kts
16-May-20 08:21 43.562229 -116.206490 265 2865ft 0kts
16-May-20 08:22 43.562229 -116.206490 265 2865ft 0kts
16-May-20 08:23 43.562229 -116.206490 265 2865ft 0kts
16-May-20 08:24 43.562229 -116.206490 265 2865ft 0kts
16-May-20 08:25 43.562229 -116.206490 265 2865ft 0kts
16-May-20 08:26 43.562229 -116.206490 265 2865ft 0kts
16-May-20 08:27 43.562229 -116.206490 265 2865ft 0kts
16-May-20 08:28 43.562179 -116.206639 214 2865ft 4kts
16-May-20 08:29 43.561947 -116.209174 294 2860ft 25kts
16-May-20 08:30 43.566120 -116.221341 294 2848ft 37kts
16-May-20 08:31 43.570320 -116.233721 295 2830ft 30kts
16-May-20 08:32 43.570970 -116.236258 196 2824ft 0kts
16-May-20 08:33 43.570970 -116.236258 196 2824ft 0kts
16-May-20 08:34 43.567100 -116.227934 114 2933ft 77kts
16-May-20 08:35 43.555243 -116.203169 132 3764ft 78kts
16-May-20 08:37 43.546331 -116.176076 105 4548ft 79kts
16-May-20 08:38 43.536133 -116.149192 123 5354ft 80kts
16-May-20 08:39 43.524238 -116.123987 120 6129ft 81kts
16-May-20 08:40 43.516299 -116.094942 94 6883ft 82kts
16-May-20 08:41 43.514371 -116.063432 94 7599ft 83kts
16-May-20 08:42 43.512048 -116.031483 96 8270ft 84kts
16-May-20 08:43 43.509094 -115.999276 97 8907ft 85kts
16-May-20 08:44 43.505857 -115.966695 97 9507ft 86kts
16-May-20 08:45 43.502496 -115.933848 97 10066ft 87kts
16-May-20 08:46 43.499054 -115.900646 97 10604ft 88kts
16-May-20 08:47 43.495813 -115.867549 98 11149ft 84kts
16-May-20 08:48 43.492554 -115.837775 98 11716ft 73kts
16-May-20 08:49 43.489172 -115.811026 101 12162ft 70kts
16-May-20 08:49 43.485772 -115.788774 102 12497ft 72kts
16-May-20 08:51 43.480494 -115.757576 108 12961ft 71kts
16-May-20 08:52 43.474655 -115.732335 107 13348ft 65kts
16-May-20 08:52 43.471162 -115.711282 97 13591ft 69kts
16-May-20 08:54 43.467346 -115.680812 99 13962ft 69kts
16-May-20 08:55 43.461242 -115.655343 116 14255ft 71kts
16-May-20 08:55 43.456433 -115.632420 105 14459ft 80kts
16-May-20 08:56 43.450593 -115.601919 104 14804ft 79kts
16-May-20 08:58 43.445740 -115.570603 62 15167ft 71kts
16-May-20 08:58 43.439831 -115.562738 125 14560ft 74kts
16-May-20 08:59 43.431513 -115.535638 94 14496ft 84kts
16-May-20 09:00 43.426395 -115.499694 102 14211ft 105kts
16-May-20 09:01 43.418559 -115.454018 97 13657ft 141kts
16-May-20 09:02 43.413635 -115.402902 100 13453ft 140kts
16-May-20 09:03 43.405077 -115.349739 103 13027ft 138kts
16-May-20 09:04 43.396408 -115.301111 104 12988ft 132kts
16-May-20 09:05 43.387290 -115.251037 104 12796ft 130kts
16-May-20 09:06 43.378579 -115.203481 104 12797ft 127kts
16-May-20 09:07 43.369924 -115.156385 104 12797ft 126kts
16-May-20 09:08 43.361265 -115.109397 104 12797ft 126kts
16-May-20 09:09 43.352605 -115.062525 104 12797ft 126kts
16-May-20 09:10 43.343924 -115.015658 104 12797ft 126kts
16-May-20 09:11 43.335211 -114.968733 104 12797ft 126kts
16-May-20 09:12 43.326215 -114.921825 106 12797ft 126kts
16-May-20 09:13 43.316005 -114.875585 105 12797ft 126kts
16-May-20 09:14 43.306950 -114.828874 104 12797ft 126kts
16-May-20 09:15 43.298125 -114.782009 104 12797ft 126kts
16-May-20 09:16 43.291109 -114.735012 104 12795ft 120kts
16-May-20 09:17 43.282194 -114.689810 104 12798ft 125kts
16-May-20 09:18 43.272846 -114.643221 105 12749ft 128kts
16-May-20 09:19 43.263406 -114.596295 105 12724ft 129kts
16-May-20 09:20 43.253395 -114.546008 104 12323ft 142kts
16-May-20 09:21 43.243324 -114.493666 104 11638ft 132kts
16-May-20 09:22 43.234692 -114.448810 104 10628ft 116kts
16-May-20 09:23 43.226583 -114.406590 104 9626ft 114kts
16-May-20 09:24 43.218775 -114.365968 104 8863ft 103kts
16-May-20 09:25 43.211167 -114.326950 111 8407ft 107kts
16-May-20 09:26 43.211711 -114.289744 64 8359ft 104kts
16-May-20 09:27 43.233976 -114.267528 24 8408ft 95kts
16-May-20 09:28 43.258045 -114.252968 23 8425ft 105kts
16-May-20 09:29 43.287298 -114.231833 35 8351ft 125kts
16-May-20 09:30 43.314318 -114.202583 37 8353ft 122kts
16-May-20 09:31 43.338953 -114.171256 32 8352ft 121kts
16-May-20 09:32 43.371304 -114.168500 343 8223ft 115kts
16-May-20 09:33 43.397684 -114.191116 302 7884ft 101kts
16-May-20 09:34 43.407217 -114.223599 307 7711ft 87kts
16-May-20 09:35 43.428223 -114.240617 334 7185ft 91kts
16-May-20 09:36 43.452383 -114.255877 331 6479ft 98kts
16-May-20 09:37 43.478276 -114.273602 334 5781ft 108kts
16-May-20 09:38 43.499436 -114.291387 325 5272ft 41kts
16-May-20 09:39 43.503609 -114.296704 234 5287ft 0kts
16-May-20 09:40 43.505571 -114.299372 273 5297ft 20kts

Navigation Log

Ident Type
Flight plan parsing failed, navigation log unavailable